createdAt,value
2023-05-14T00:02:08.258Z,9.30
2023-05-14T00:04:36.924Z,9.26
2023-05-14T00:07:06.715Z,9.22
2023-05-14T00:09:35.538Z,9.19
2023-05-14T00:12:04.624Z,9.16
2023-05-14T00:14:33.453Z,9.14
2023-05-14T00:17:02.467Z,9.18
2023-05-14T00:19:31.151Z,9.19
2023-05-14T00:21:59.837Z,9.20
2023-05-14T00:24:28.589Z,9.22
2023-05-14T00:26:57.143Z,9.20
2023-05-14T00:29:25.999Z,9.15
2023-05-14T00:31:54.632Z,9.10
2023-05-14T00:34:23.243Z,9.06
2023-05-14T00:36:52.269Z,9.06
2023-05-14T00:39:21.038Z,9.03
2023-05-14T00:41:49.559Z,8.97
2023-05-14T00:44:18.187Z,8.93
2023-05-14T00:46:47.138Z,8.90
2023-05-14T00:49:16.281Z,8.88
2023-05-14T00:51:46.408Z,8.86
2023-05-14T00:54:15.875Z,8.85
2023-05-14T00:56:46.487Z,8.84
2023-05-14T00:59:15.230Z,8.86
2023-05-14T01:01:44.108Z,8.87
2023-05-14T01:04:13.300Z,8.86
2023-05-14T01:06:52.188Z,8.79
2023-05-14T01:09:29.600Z,8.76
2023-05-14T01:12:04.758Z,8.73
2023-05-14T01:14:41.194Z,8.72
2023-05-14T01:17:12.807Z,8.73
2023-05-14T01:19:43.196Z,8.74
2023-05-14T01:22:12.086Z,8.73
2023-05-14T01:24:40.906Z,8.73
2023-05-14T01:27:16.849Z,8.74
2023-05-14T01:29:53.332Z,8.73
2023-05-14T01:32:25.402Z,8.73
2023-05-14T01:34:56.752Z,8.72
2023-05-14T01:37:25.896Z,8.70
2023-05-14T01:39:57.439Z,8.67
2023-05-14T01:42:26.813Z,8.63
2023-05-14T01:44:55.916Z,8.58
2023-05-14T01:47:24.649Z,8.50
2023-05-14T01:49:53.307Z,8.47
2023-05-14T01:52:21.839Z,8.46
2023-05-14T01:54:50.713Z,8.43
2023-05-14T01:57:19.542Z,8.39
2023-05-14T01:59:48.173Z,8.35
2023-05-14T02:02:16.833Z,8.28
2023-05-14T02:04:46.424Z,8.19
2023-05-14T02:07:15.077Z,8.17
2023-05-14T02:09:43.746Z,8.12
2023-05-14T02:12:12.478Z,8.06
2023-05-14T02:14:41.127Z,8.02
2023-05-14T02:17:09.729Z,7.95
2023-05-14T02:19:38.363Z,7.86
2023-05-14T02:22:07.879Z,7.80
2023-05-14T02:24:36.526Z,7.79
2023-05-14T02:27:06.179Z,7.76
2023-05-14T02:29:34.802Z,7.72
2023-05-14T02:32:03.792Z,7.68
2023-05-14T02:34:33.735Z,7.66
2023-05-14T02:37:02.503Z,7.65
2023-05-14T02:39:33.349Z,7.64
2023-05-14T02:42:02.870Z,7.64
2023-05-14T02:44:31.871Z,7.63
2023-05-14T02:47:00.547Z,7.61
2023-05-14T02:49:29.303Z,7.63
2023-05-14T02:52:00.223Z,7.64
2023-05-14T02:54:28.941Z,7.66
2023-05-14T02:56:57.531Z,7.66
2023-05-14T02:59:26.452Z,7.65
2023-05-14T03:01:55.806Z,7.63
2023-05-14T03:04:25.210Z,7.60
2023-05-14T03:06:54.006Z,7.55
2023-05-14T03:09:22.682Z,7.49
2023-05-14T03:11:51.605Z,7.43
2023-05-14T03:14:20.235Z,7.37
2023-05-14T03:16:49.401Z,7.36
2023-05-14T03:19:18.111Z,7.40
2023-05-14T03:21:46.668Z,7.50
2023-05-14T03:24:15.179Z,7.65
2023-05-14T03:26:46.238Z,7.81
2023-05-14T03:29:17.372Z,7.97
2023-05-14T03:31:46.564Z,8.15
2023-05-14T03:34:15.260Z,8.32
2023-05-14T03:36:44.174Z,8.46
2023-05-14T03:39:14.940Z,8.53
2023-05-14T03:41:43.559Z,8.56
2023-05-14T03:44:12.197Z,8.64
2023-05-14T03:46:40.885Z,8.68
2023-05-14T03:49:09.583Z,8.70
2023-05-14T03:51:39.114Z,8.76
2023-05-14T03:54:07.823Z,8.89
2023-05-14T03:56:36.420Z,9.07
2023-05-14T03:59:05.162Z,9.25
2023-05-14T04:01:33.877Z,9.46
2023-05-14T04:04:02.516Z,9.63
2023-05-14T04:06:31.344Z,9.67
2023-05-14T04:08:59.960Z,9.67
2023-05-14T04:11:29.103Z,9.70
2023-05-14T04:13:57.695Z,9.68
2023-05-14T04:16:26.418Z,9.61
2023-05-14T04:18:55.092Z,9.49
2023-05-14T04:21:23.719Z,9.33
2023-05-14T04:23:52.282Z,9.19
2023-05-14T04:26:21.517Z,9.08
2023-05-14T04:28:50.138Z,9.02
2023-05-14T04:31:18.730Z,9.05
2023-05-14T04:33:47.618Z,9.13
2023-05-14T04:36:16.180Z,9.19
2023-05-14T04:38:45.874Z,9.26
2023-05-14T04:41:14.534Z,9.46
2023-05-14T04:43:43.220Z,9.82
2023-05-14T04:46:13.335Z,10.29
2023-05-14T04:48:42.090Z,10.75
2023-05-14T04:51:10.685Z,11.28
2023-05-14T04:53:39.295Z,11.83
2023-05-14T04:56:08.218Z,12.39
2023-05-14T04:58:37.099Z,12.94
2023-05-14T05:01:06.229Z,13.41
2023-05-14T05:03:35.102Z,13.88
2023-05-14T05:06:03.932Z,14.34
2023-05-14T05:08:32.528Z,14.78
2023-05-14T05:11:01.212Z,15.20
2023-05-14T05:13:29.783Z,15.65
2023-05-14T05:15:58.592Z,16.09
2023-05-14T05:18:27.328Z,16.48
2023-05-14T05:20:55.900Z,16.82
2023-05-14T05:23:24.579Z,17.11
2023-05-14T05:25:53.158Z,17.45
2023-05-14T05:28:21.766Z,17.83
2023-05-14T05:30:50.602Z,18.11
2023-05-14T05:33:19.298Z,18.38
2023-05-14T05:35:49.277Z,18.72
2023-05-14T05:38:37.367Z,19.01
2023-05-14T05:41:35.654Z,19.06
2023-05-14T05:44:18.733Z,19.04
2023-05-14T05:47:02.845Z,19.09
2023-05-14T05:49:52.096Z,19.19
2023-05-14T05:52:57.446Z,19.37
2023-05-14T05:55:30.657Z,19.54
2023-05-14T05:57:59.253Z,19.75
2023-05-14T06:00:41.830Z,19.93
2023-05-14T06:03:30.478Z,20.08
2023-05-14T06:06:19.576Z,20.17
2023-05-14T06:09:06.847Z,20.24
2023-05-14T06:11:55.923Z,20.44
2023-05-14T06:14:42.624Z,20.53
2023-05-14T06:17:32.650Z,20.55
2023-05-14T06:20:13.765Z,20.38
2023-05-14T06:23:12.308Z,20.10
2023-05-14T06:25:50.105Z,20.15
2023-05-14T06:28:32.582Z,20.25
2023-05-14T06:31:21.625Z,20.31
2023-05-14T06:34:22.122Z,20.36
2023-05-14T06:37:17.585Z,20.53
2023-05-14T06:40:16.406Z,20.54
2023-05-14T06:43:21.655Z,20.94
2023-05-14T06:46:16.488Z,21.23
2023-05-14T06:49:03.148Z,21.62
2023-05-14T06:51:46.151Z,21.95
2023-05-14T06:54:28.667Z,22.25
2023-05-14T06:57:07.663Z,22.51
2023-05-14T06:59:43.445Z,22.69
2023-05-14T07:02:26.673Z,22.78
2023-05-14T07:05:23.464Z,22.88
2023-05-14T07:08:16.154Z,23.06
2023-05-14T07:11:14.304Z,23.36
2023-05-14T07:14:09.002Z,23.67
2023-05-14T07:16:57.705Z,23.57
2023-05-14T07:19:49.956Z,23.57
2023-05-14T07:22:28.579Z,23.68
2023-05-14T07:25:23.727Z,23.83
2023-05-14T07:27:58.376Z,23.89
2023-05-14T07:30:37.719Z,23.94
2023-05-14T07:33:30.242Z,23.94
2023-05-14T07:36:05.306Z,24.03
2023-05-14T07:38:42.390Z,24.10
2023-05-14T07:41:11.589Z,24.25
2023-05-14T07:43:40.350Z,24.33
2023-05-14T07:46:09.097Z,24.23
2023-05-14T07:48:37.745Z,24.19
2023-05-14T07:51:06.479Z,24.22
2023-05-14T07:53:35.196Z,24.10
2023-05-14T07:56:03.963Z,23.94
2023-05-14T07:58:32.532Z,23.96
2023-05-14T08:01:03.308Z,24.09
2023-05-14T08:03:31.962Z,24.08
2023-05-14T08:06:00.614Z,24.19
2023-05-14T08:08:29.282Z,24.23
2023-05-14T08:10:59.216Z,24.20
2023-05-14T08:13:27.762Z,24.29
2023-05-14T08:15:56.412Z,24.45
2023-05-14T08:18:25.109Z,24.65
2023-05-14T08:20:53.750Z,24.69
2023-05-14T08:23:22.437Z,24.61
2023-05-14T08:25:51.042Z,24.80
2023-05-14T08:28:19.721Z,24.99
2023-05-14T08:30:48.457Z,25.23
2023-05-14T08:33:17.500Z,25.47
2023-05-14T08:35:46.070Z,25.77
2023-05-14T08:38:14.773Z,26.03
2023-05-14T08:40:46.879Z,26.27
2023-05-14T08:43:20.060Z,26.33
2023-05-14T08:45:53.067Z,26.39
2023-05-14T08:48:24.218Z,26.40
2023-05-14T08:50:53.229Z,26.35
2023-05-14T08:53:21.995Z,26.13
2023-05-14T08:55:52.302Z,25.93
2023-05-14T08:58:20.945Z,25.64
2023-05-14T09:00:50.229Z,25.47
2023-05-14T09:03:19.096Z,25.36
2023-05-14T09:05:48.928Z,25.30
2023-05-14T09:08:18.269Z,25.14
2023-05-14T09:10:46.831Z,24.95
2023-05-14T09:13:15.843Z,24.73
2023-05-14T09:15:45.658Z,24.63
2023-05-14T09:18:14.393Z,24.59
2023-05-14T09:20:43.080Z,24.59
2023-05-14T09:23:11.695Z,24.60
2023-05-14T09:25:40.366Z,24.55
2023-05-14T09:28:09.965Z,24.55
2023-05-14T09:30:38.766Z,24.46
2023-05-14T09:33:09.833Z,24.47
2023-05-14T09:35:39.688Z,24.55
2023-05-14T09:38:08.996Z,24.66
2023-05-14T09:40:38.217Z,24.81
2023-05-14T09:43:06.823Z,24.87
2023-05-14T09:45:36.246Z,24.90
2023-05-14T09:48:05.806Z,25.06
2023-05-14T09:50:42.686Z,25.17
2023-05-14T09:53:11.449Z,25.20
2023-05-14T09:55:41.025Z,25.28
2023-05-14T09:58:09.684Z,25.57
2023-05-14T10:00:38.627Z,25.68
2023-05-14T10:03:08.130Z,25.55
2023-05-14T10:05:39.913Z,25.45
2023-05-14T10:08:14.931Z,25.49
2023-05-14T10:10:43.682Z,25.38
2023-05-14T10:13:14.752Z,25.35
2023-05-14T10:15:47.818Z,25.37
2023-05-14T10:18:19.533Z,25.50
2023-05-14T10:20:53.052Z,25.36
2023-05-14T10:23:30.687Z,24.97
2023-05-14T10:26:24.167Z,24.66
2023-05-14T10:29:21.650Z,24.43
2023-05-14T10:32:38.986Z,24.39
2023-05-14T10:35:46.738Z,24.26
2023-05-14T10:39:04.871Z,24.32
2023-05-14T10:42:21.854Z,24.41
2023-05-14T10:45:31.988Z,24.34
2023-05-14T10:48:39.932Z,24.01
2023-05-14T10:51:37.235Z,23.77
2023-05-14T10:54:17.303Z,23.55
2023-05-14T10:56:53.546Z,23.46
2023-05-14T10:59:27.349Z,23.35
2023-05-14T11:01:57.538Z,23.25
2023-05-14T11:04:28.310Z,23.10
2023-05-14T11:06:58.101Z,22.91
2023-05-14T11:09:27.160Z,22.76
2023-05-14T11:11:55.725Z,22.72
2023-05-14T11:14:24.523Z,22.70
2023-05-14T11:16:53.274Z,22.62
2023-05-14T11:19:22.309Z,22.55
2023-05-14T11:21:50.939Z,22.45
2023-05-14T11:24:19.595Z,22.20
2023-05-14T11:26:48.211Z,22.01
2023-05-14T11:29:16.872Z,21.84
2023-05-14T11:31:45.967Z,21.75
2023-05-14T11:34:14.634Z,21.71
2023-05-14T11:36:43.338Z,21.71
2023-05-14T11:39:18.862Z,21.70
2023-05-14T11:41:47.506Z,21.75
2023-05-14T11:44:17.013Z,21.83
2023-05-14T11:46:55.787Z,21.90
2023-05-14T11:49:25.097Z,21.98
2023-05-14T11:51:58.662Z,22.01
2023-05-14T11:54:28.540Z,21.99
2023-05-14T11:56:58.336Z,22.00
2023-05-14T11:59:30.989Z,22.03
2023-05-14T12:02:00.120Z,22.03
2023-05-14T12:04:29.527Z,22.06
2023-05-14T12:07:00.339Z,22.03
2023-05-14T12:09:28.939Z,22.02
2023-05-14T12:12:07.534Z,22.00
2023-05-14T12:14:38.510Z,22.06
2023-05-14T12:17:13.008Z,22.11
2023-05-14T12:19:42.533Z,22.04
2023-05-14T12:22:13.560Z,21.98
2023-05-14T12:24:43.812Z,21.93
2023-05-14T12:27:12.652Z,21.90
2023-05-14T12:29:42.934Z,21.88
2023-05-14T12:32:14.314Z,21.87
2023-05-14T12:34:42.959Z,21.86
2023-05-14T12:37:11.537Z,21.85
2023-05-14T12:39:40.162Z,21.84
2023-05-14T12:42:08.865Z,21.87
2023-05-14T12:44:37.528Z,21.91
2023-05-14T12:47:07.055Z,21.92
2023-05-14T12:49:35.948Z,21.94
2023-05-14T12:52:22.786Z,21.91
2023-05-14T12:54:54.963Z,21.85
2023-05-14T12:57:23.590Z,21.78
2023-05-14T12:59:52.193Z,21.72
2023-05-14T13:02:21.321Z,21.68
2023-05-14T13:04:49.985Z,21.69
2023-05-14T13:07:18.563Z,21.69
2023-05-14T13:09:47.146Z,21.65
2023-05-14T13:12:15.701Z,21.62
2023-05-14T13:14:44.230Z,21.60
2023-05-14T13:17:12.819Z,21.53
2023-05-14T13:19:41.361Z,21.51
2023-05-14T13:22:09.897Z,21.47
2023-05-14T13:24:46.173Z,21.44
2023-05-14T13:27:16.630Z,21.43
2023-05-14T13:30:08.814Z,21.47
2023-05-14T13:33:13.978Z,21.46
2023-05-14T13:35:59.344Z,21.36
2023-05-14T13:38:58.287Z,21.25
2023-05-14T13:41:44.184Z,21.21
2023-05-14T13:44:30.645Z,21.16
2023-05-14T13:47:32.777Z,21.05
2023-05-14T13:50:26.254Z,20.97
2023-05-14T13:53:41.370Z,20.85
2023-05-14T13:56:52.719Z,20.71
2023-05-14T13:59:23.330Z,20.59
2023-05-14T14:01:52.820Z,20.54
2023-05-14T14:04:23.612Z,20.51
2023-05-14T14:06:52.159Z,20.49
2023-05-14T14:09:20.960Z,20.46
2023-05-14T14:11:50.100Z,20.43
2023-05-14T14:14:19.397Z,20.39
2023-05-14T14:16:48.056Z,20.34
2023-05-14T14:19:18.412Z,20.35
2023-05-14T14:21:47.399Z,20.37
2023-05-14T14:24:16.040Z,20.37
2023-05-14T14:26:44.685Z,20.37
2023-05-14T14:29:13.428Z,20.40
2023-05-14T14:31:42.889Z,20.44
2023-05-14T14:34:11.698Z,20.48
2023-05-14T14:36:40.330Z,20.51
2023-05-14T14:39:08.852Z,20.53
2023-05-14T14:41:37.487Z,20.55
2023-05-14T14:44:06.221Z,20.57
2023-05-14T14:46:35.183Z,20.61
2023-05-14T14:49:04.488Z,20.61
2023-05-14T14:51:33.164Z,20.61
2023-05-14T14:54:01.741Z,20.63
2023-05-14T14:56:31.081Z,20.63
2023-05-14T14:59:01.257Z,20.64
2023-05-14T15:01:30.059Z,20.66
2023-05-14T15:03:58.639Z,20.68
2023-05-14T15:06:27.775Z,20.69
2023-05-14T15:08:56.483Z,20.68
2023-05-14T15:11:25.892Z,20.66
2023-05-14T15:13:54.614Z,20.65
2023-05-14T15:16:23.186Z,20.65
2023-05-14T15:18:51.981Z,20.62
2023-05-14T15:21:20.877Z,20.60
2023-05-14T15:23:49.477Z,20.54
2023-05-14T15:26:18.024Z,20.50
2023-05-14T15:28:46.594Z,20.44
2023-05-14T15:31:15.573Z,20.39
2023-05-14T15:33:44.246Z,20.35
2023-05-14T15:36:20.990Z,20.30
2023-05-14T15:38:49.616Z,20.25
2023-05-14T15:41:18.241Z,20.18
2023-05-14T15:43:46.838Z,20.13
2023-05-14T15:46:15.553Z,20.08
2023-05-14T15:48:44.105Z,20.02
2023-05-14T15:51:13.642Z,19.96
2023-05-14T15:53:42.278Z,19.90
2023-05-14T15:56:11.283Z,19.86
2023-05-14T15:58:40.269Z,19.78
2023-05-14T16:01:09.124Z,19.72
2023-05-14T16:03:37.913Z,19.68
2023-05-14T16:06:07.362Z,19.65
2023-05-14T16:08:36.009Z,19.62
2023-05-14T16:11:05.642Z,19.59
2023-05-14T16:13:35.242Z,19.54
2023-05-14T16:16:04.296Z,19.50
2023-05-14T16:18:33.886Z,19.47
2023-05-14T16:21:03.015Z,19.43
2023-05-14T16:23:31.747Z,19.40
2023-05-14T16:26:00.869Z,19.35
2023-05-14T16:28:32.998Z,19.29
2023-05-14T16:31:03.694Z,19.23
2023-05-14T16:33:48.066Z,19.19
2023-05-14T16:36:42.577Z,19.13
2023-05-14T16:39:23.362Z,19.05
2023-05-14T16:42:16.641Z,18.96
2023-05-14T16:45:11.173Z,18.84
2023-05-14T16:47:49.923Z,18.73
2023-05-14T16:50:57.779Z,18.64
2023-05-14T16:53:27.008Z,18.55
2023-05-14T16:55:59.604Z,18.49
2023-05-14T16:58:33.193Z,18.42
2023-05-14T17:01:23.265Z,18.36
2023-05-14T17:03:52.772Z,18.32
2023-05-14T17:06:24.204Z,18.28
2023-05-14T17:09:03.913Z,18.25
2023-05-14T17:11:45.899Z,18.21
2023-05-14T17:14:22.215Z,18.18
2023-05-14T17:16:52.575Z,18.19
2023-05-14T17:19:32.321Z,18.23
2023-05-14T17:22:10.931Z,18.13
2023-05-14T17:24:53.901Z,17.90
2023-05-14T17:27:22.612Z,17.67
2023-05-14T17:29:51.233Z,17.40
2023-05-14T17:32:20.507Z,17.12
2023-05-14T17:34:49.248Z,16.79
2023-05-14T17:37:17.900Z,16.56
2023-05-14T17:39:46.709Z,16.36
2023-05-14T17:42:16.155Z,16.17
2023-05-14T17:45:06.371Z,16.01
2023-05-14T17:47:46.288Z,15.85
2023-05-14T17:50:25.680Z,15.71
2023-05-14T17:53:12.734Z,15.62
2023-05-14T17:55:43.958Z,15.50
2023-05-14T17:58:27.663Z,15.43
2023-05-14T18:01:07.015Z,15.37
2023-05-14T18:03:38.582Z,15.29
2023-05-14T18:06:20.163Z,15.27
2023-05-14T18:09:05.251Z,15.27
2023-05-14T18:11:46.689Z,15.25
2023-05-14T18:14:25.248Z,15.23
2023-05-14T18:17:03.180Z,15.22
2023-05-14T18:19:37.641Z,15.22
2023-05-14T18:22:06.627Z,15.24
2023-05-14T18:24:35.322Z,15.25
2023-05-14T18:27:04.288Z,15.19
2023-05-14T18:29:33.104Z,15.05
2023-05-14T18:32:02.491Z,14.95
2023-05-14T18:34:33.620Z,14.90
2023-05-14T18:37:08.333Z,14.90
2023-05-14T18:39:41.134Z,14.87
2023-05-14T18:42:16.349Z,14.89
2023-05-14T18:44:49.820Z,14.90
2023-05-14T18:47:21.218Z,14.91
2023-05-14T18:49:57.725Z,14.90
2023-05-14T18:52:36.590Z,14.87
2023-05-14T18:55:09.939Z,14.79
2023-05-14T18:57:43.957Z,14.74
2023-05-14T19:00:15.059Z,14.73
2023-05-14T19:02:44.521Z,14.73
2023-05-14T19:05:13.285Z,14.73
2023-05-14T19:07:43.579Z,14.74
2023-05-14T19:10:23.308Z,14.74
2023-05-14T19:12:55.388Z,14.65
2023-05-14T19:15:25.789Z,14.51
2023-05-14T19:17:55.901Z,14.33
2023-05-14T19:20:26.181Z,14.11
2023-05-14T19:22:54.880Z,13.91
2023-05-14T19:25:23.882Z,13.77
2023-05-14T19:27:55.588Z,13.65
2023-05-14T19:30:26.715Z,13.56
2023-05-14T19:32:55.748Z,13.53
2023-05-14T19:35:27.645Z,13.52
2023-05-14T19:38:06.851Z,13.53
2023-05-14T19:40:36.435Z,13.55
2023-05-14T19:43:05.718Z,13.59
2023-05-14T19:45:38.484Z,13.65
2023-05-14T19:48:06.608Z,13.72
2023-05-14T19:50:41.021Z,13.76
2023-05-14T19:53:11.162Z,13.83
2023-05-14T19:55:41.565Z,13.86
2023-05-14T19:58:13.292Z,13.87
2023-05-14T20:00:46.648Z,13.87
2023-05-14T20:03:15.259Z,13.87
2023-05-14T20:05:45.146Z,13.83
2023-05-14T20:08:13.755Z,13.78
2023-05-14T20:10:43.965Z,13.73
2023-05-14T20:13:12.719Z,13.67
2023-05-14T20:15:42.085Z,13.68
2023-05-14T20:18:10.763Z,13.70
2023-05-14T20:20:39.780Z,13.69
2023-05-14T20:23:08.469Z,13.68
2023-05-14T20:25:37.154Z,13.67
2023-05-14T20:28:05.854Z,13.67
2023-05-14T20:30:34.432Z,13.69
2023-05-14T20:33:03.297Z,13.69
2023-05-14T20:35:31.927Z,13.64
2023-05-14T20:38:04.735Z,13.61
2023-05-14T20:40:33.438Z,13.61
2023-05-14T20:43:01.982Z,13.59
2023-05-14T20:45:31.053Z,13.57
2023-05-14T20:48:02.137Z,13.55
2023-05-14T20:50:30.801Z,13.50
2023-05-14T20:52:59.352Z,13.47
2023-05-14T20:55:28.171Z,13.44
2023-05-14T20:57:56.758Z,13.42
2023-05-14T21:00:25.906Z,13.37
2023-05-14T21:02:54.631Z,13.33
2023-05-14T21:05:23.561Z,13.31
2023-05-14T21:07:52.664Z,13.28
2023-05-14T21:10:21.233Z,13.29
2023-05-14T21:12:49.807Z,13.29
2023-05-14T21:15:18.679Z,13.35
2023-05-14T21:17:47.296Z,13.38
2023-05-14T21:20:18.788Z,13.33
2023-05-14T21:22:47.419Z,13.25
2023-05-14T21:25:16.142Z,13.18
2023-05-14T21:27:44.746Z,13.11
2023-05-14T21:30:15.057Z,13.05
2023-05-14T21:32:43.674Z,12.99
2023-05-14T21:35:12.601Z,12.95
2023-05-14T21:37:41.232Z,12.90
2023-05-14T21:40:12.657Z,12.86
2023-05-14T21:42:41.308Z,12.82
2023-05-14T21:45:11.108Z,12.82
2023-05-14T21:47:39.938Z,12.82
2023-05-14T21:50:10.166Z,12.80
2023-05-14T21:52:38.850Z,12.79
2023-05-14T21:55:08.632Z,12.75
2023-05-14T21:57:37.282Z,12.71
2023-05-14T22:00:11.803Z,12.67
2023-05-14T22:02:41.399Z,12.63
2023-05-14T22:05:10.408Z,12.59
2023-05-14T22:07:39.044Z,12.55
2023-05-14T22:10:08.840Z,12.53
2023-05-14T22:12:37.462Z,12.50
2023-05-14T22:15:08.368Z,12.49
2023-05-14T22:17:37.340Z,12.50
2023-05-14T22:20:09.486Z,12.51
2023-05-14T22:22:37.342Z,12.51
2023-05-14T22:25:07.284Z,12.49
2023-05-14T22:27:35.835Z,12.48
2023-05-14T22:30:05.940Z,12.48
2023-05-14T22:32:34.549Z,12.45
2023-05-14T22:35:03.408Z,12.43
2023-05-14T22:37:32.039Z,12.41
2023-05-14T22:40:01.588Z,12.36
2023-05-14T22:42:30.269Z,12.33
2023-05-14T22:44:58.849Z,12.36
2023-05-14T22:47:27.574Z,12.40
2023-05-14T22:49:56.219Z,12.43
2023-05-14T22:52:25.247Z,12.46
2023-05-14T22:54:53.975Z,12.50
2023-05-14T22:57:22.622Z,12.54
2023-05-14T22:59:51.399Z,12.56
2023-05-14T23:02:19.931Z,12.56
2023-05-14T23:04:48.713Z,12.56
2023-05-14T23:07:17.353Z,12.61
2023-05-14T23:09:46.071Z,12.66
2023-05-14T23:12:14.636Z,12.71
2023-05-14T23:14:43.216Z,12.76
2023-05-14T23:17:12.205Z,12.80
2023-05-14T23:19:40.899Z,12.80
2023-05-14T23:22:09.660Z,12.81
2023-05-14T23:24:38.331Z,12.79
2023-05-14T23:27:07.332Z,12.73
2023-05-14T23:29:35.865Z,12.66
2023-05-14T23:32:04.940Z,12.62
2023-05-14T23:34:34.388Z,12.58
2023-05-14T23:37:03.102Z,12.56
2023-05-14T23:39:32.260Z,12.52
2023-05-14T23:42:00.808Z,12.46
2023-05-14T23:44:29.409Z,12.39
2023-05-14T23:46:58.912Z,12.33
2023-05-14T23:49:27.518Z,12.27
2023-05-14T23:51:56.293Z,12.25
2023-05-14T23:54:24.870Z,12.25
2023-05-14T23:56:53.522Z,12.25
2023-05-14T23:59:22.212Z,12.25
